createdAt,value
2018-04-26T00:01:37.531Z,9.84
2018-04-26T00:04:10.233Z,9.83
2018-04-26T00:06:37.802Z,9.84
2018-04-26T00:09:05.307Z,9.83
2018-04-26T00:11:32.890Z,9.82
2018-04-26T00:14:00.465Z,9.80
2018-04-26T00:16:28.645Z,9.80
2018-04-26T00:18:58.232Z,9.79
2018-04-26T00:21:30.500Z,9.77
2018-04-26T00:23:58.077Z,9.79
2018-04-26T00:26:25.634Z,9.78
2018-04-26T00:28:53.160Z,9.76
2018-04-26T00:31:20.767Z,9.77
2018-04-26T00:33:49.703Z,9.77
2018-04-26T00:36:19.340Z,9.73
2018-04-26T00:38:51.239Z,9.73
2018-04-26T00:41:18.743Z,9.73
2018-04-26T00:43:46.336Z,9.72
2018-04-26T00:46:13.868Z,9.71
2018-04-26T00:48:41.455Z,9.71
2018-04-26T00:51:11.380Z,9.70
2018-04-26T00:53:38.953Z,9.69
2018-04-26T00:56:07.015Z,9.71
2018-04-26T00:58:34.547Z,9.70
2018-04-26T01:01:02.104Z,9.74
2018-04-26T01:03:29.691Z,9.77
2018-04-26T01:05:57.258Z,9.78
2018-04-26T01:08:29.683Z,9.79
2018-04-26T01:10:58.388Z,9.79
2018-04-26T01:13:27.171Z,9.79
2018-04-26T01:15:54.691Z,9.78
2018-04-26T01:18:22.192Z,9.77
2018-04-26T01:20:49.731Z,9.74
2018-04-26T01:23:17.259Z,9.73
2018-04-26T01:25:47.240Z,9.70
2018-04-26T01:28:17.439Z,9.68
2018-04-26T01:30:47.389Z,9.68
2018-04-26T01:33:14.932Z,9.66
2018-04-26T01:35:42.460Z,9.65
2018-04-26T01:38:11.412Z,9.64
2018-04-26T01:40:38.955Z,9.64
2018-04-26T01:43:07.681Z,9.64
2018-04-26T01:45:37.956Z,9.63
2018-04-26T01:48:10.546Z,9.60
2018-04-26T01:50:38.983Z,9.61
2018-04-26T01:53:06.536Z,9.59
2018-04-26T01:55:34.179Z,9.58
2018-04-26T01:58:01.711Z,9.58
2018-04-26T02:00:30.832Z,9.58
2018-04-26T02:02:58.928Z,9.58
2018-04-26T02:05:27.532Z,9.57
2018-04-26T02:07:55.079Z,9.57
2018-04-26T02:10:22.614Z,9.56
2018-04-26T02:12:50.136Z,9.54
2018-04-26T02:15:17.688Z,9.54
2018-04-26T02:17:45.752Z,9.51
2018-04-26T02:20:14.616Z,9.51
2018-04-26T02:22:43.090Z,9.50
2018-04-26T02:25:10.619Z,9.50
2018-04-26T02:27:38.168Z,9.51
2018-04-26T02:30:05.700Z,9.51
2018-04-26T02:32:33.343Z,9.51
2018-04-26T02:35:01.996Z,9.52
2018-04-26T02:37:35.943Z,9.52
2018-04-26T02:40:06.343Z,9.51
2018-04-26T02:42:33.903Z,9.48
2018-04-26T02:45:01.456Z,9.46
2018-04-26T02:47:28.971Z,9.46
2018-04-26T02:49:56.605Z,9.46
2018-04-26T02:52:25.849Z,9.45
2018-04-26T02:54:57.686Z,9.49
2018-04-26T02:57:26.200Z,9.51
2018-04-26T02:59:53.788Z,9.53
2018-04-26T03:02:21.292Z,9.57
2018-04-26T03:04:48.870Z,9.59
2018-04-26T03:07:16.452Z,9.61
2018-04-26T03:09:44.241Z,9.63
2018-04-26T03:12:13.277Z,9.65
2018-04-26T03:14:43.312Z,9.64
2018-04-26T03:17:10.843Z,9.64
2018-04-26T03:19:38.394Z,9.65
2018-04-26T03:22:06.003Z,9.61
2018-04-26T03:24:33.567Z,9.61
2018-04-26T03:30:15.125Z,9.62
2018-04-26T03:32:46.321Z,9.63
2018-04-26T03:35:13.871Z,9.63
2018-04-26T03:37:41.386Z,9.63
2018-04-26T03:40:08.947Z,9.62
2018-04-26T03:42:36.479Z,9.58
2018-04-26T03:45:04.180Z,9.62
2018-04-26T03:47:33.274Z,9.63
2018-04-26T03:50:03.157Z,9.64
2018-04-26T03:52:30.699Z,9.64
2018-04-26T03:54:58.296Z,9.65
2018-04-26T03:57:25.867Z,9.63
2018-04-26T04:00:06.029Z,9.62
2018-04-26T04:02:47.046Z,9.60
2018-04-26T04:08:28.604Z,9.60
2018-04-26T04:11:05.947Z,9.57
2018-04-26T04:13:33.502Z,9.58
2018-04-26T04:16:01.106Z,9.57
2018-04-26T04:18:30.052Z,9.57
2018-04-26T04:20:58.257Z,9.54
2018-04-26T04:23:27.332Z,9.52
2018-04-26T04:25:54.845Z,9.51
2018-04-26T04:28:22.400Z,9.50
2018-04-26T04:30:49.911Z,9.49
2018-04-26T04:33:17.565Z,9.49
2018-04-26T04:35:45.305Z,9.46
2018-04-26T04:38:13.942Z,9.45
2018-04-26T04:40:42.316Z,9.44
2018-04-26T04:43:12.738Z,9.45
2018-04-26T04:45:40.283Z,9.47
2018-04-26T04:48:07.883Z,9.48
2018-04-26T04:50:35.425Z,9.49
2018-04-26T04:53:03.012Z,9.49
2018-04-26T04:55:31.404Z,9.50
2018-04-26T04:58:05.728Z,9.51
2018-04-26T05:00:34.361Z,9.52
2018-04-26T05:03:01.923Z,9.53
2018-04-26T05:05:29.472Z,9.54
2018-04-26T05:07:57.019Z,9.54
2018-04-26T05:10:28.210Z,9.54
2018-04-26T05:12:58.431Z,9.54
2018-04-26T05:15:26.915Z,9.55
2018-04-26T05:17:55.608Z,9.54
2018-04-26T05:20:23.123Z,9.54
2018-04-26T05:22:50.716Z,9.55
2018-04-26T05:25:18.387Z,9.54
2018-04-26T05:27:46.111Z,9.55
2018-04-26T05:30:17.769Z,9.56
2018-04-26T05:32:45.763Z,9.56
2018-04-26T05:35:14.053Z,9.55
2018-04-26T05:37:41.598Z,9.56
2018-04-26T05:40:09.155Z,9.55
2018-04-26T05:42:36.711Z,9.56
2018-04-26T05:45:05.276Z,9.59
2018-04-26T05:47:35.436Z,9.63
2018-04-26T05:50:03.634Z,9.67
2018-04-26T05:52:31.171Z,9.71
2018-04-26T05:54:58.783Z,9.73
2018-04-26T05:57:26.310Z,9.75
2018-04-26T05:59:53.943Z,9.74
2018-04-26T06:02:25.943Z,9.71
2018-04-26T06:04:53.972Z,9.67
2018-04-26T06:07:25.961Z,9.66
2018-04-26T06:09:53.501Z,9.64
2018-04-26T06:12:21.074Z,9.62
2018-04-26T06:14:48.643Z,9.62
2018-04-26T06:17:16.343Z,9.63
2018-04-26T06:19:44.064Z,9.65
2018-04-26T06:22:14.189Z,9.72
2018-04-26T06:24:42.667Z,9.80
2018-04-26T06:27:10.219Z,9.86
2018-04-26T06:29:37.791Z,9.91
2018-04-26T06:32:05.350Z,9.92
2018-04-26T06:34:32.943Z,9.91
2018-04-26T06:42:15.409Z,9.97
2018-04-26T06:44:42.939Z,10.01
2018-04-26T06:47:10.515Z,9.99
2018-04-26T06:49:38.187Z,10.00
2018-04-26T06:52:05.760Z,9.97
2018-04-26T06:54:34.679Z,9.96
2018-04-26T06:57:04.492Z,9.98
2018-04-26T07:02:08.797Z,10.06
2018-04-26T07:04:36.375Z,10.09
2018-04-26T07:07:04.059Z,10.13
2018-04-26T07:09:32.360Z,10.16
2018-04-26T07:12:02.571Z,10.18
2018-04-26T07:14:31.071Z,10.20
2018-04-26T07:16:59.561Z,10.23
2018-04-26T07:19:27.115Z,10.26
2018-04-26T07:21:54.864Z,10.28
2018-04-26T07:24:22.375Z,10.32
2018-04-26T07:26:50.027Z,10.35
2018-04-26T07:29:22.607Z,10.39
2018-04-26T07:37:01.604Z,10.54
2018-04-26T07:39:29.154Z,10.54
2018-04-26T07:41:56.799Z,10.52
2018-04-26T07:50:02.133Z,10.61
2018-04-26T07:52:34.658Z,10.64
2018-04-26T07:55:02.307Z,10.71
2018-04-26T07:57:29.929Z,10.78
2018-04-26T07:59:57.525Z,10.86
2018-04-26T08:02:27.744Z,10.93
2018-04-26T08:10:29.549Z,10.99
2018-04-26T08:12:57.173Z,10.99
2018-04-26T08:15:24.712Z,10.99
2018-04-26T08:17:53.275Z,11.01
2018-04-26T08:20:26.027Z,11.05
2018-04-26T08:28:15.090Z,11.14
2018-04-26T08:30:43.602Z,11.17
2018-04-26T08:33:11.182Z,11.20
2018-04-26T08:35:42.053Z,11.21
2018-04-26T08:46:34.033Z,11.40
2018-04-26T08:49:01.686Z,11.42
2018-04-26T08:51:29.255Z,11.42
2018-04-26T09:04:29.491Z,11.55
2018-04-26T09:06:57.143Z,11.55
2018-04-26T09:09:24.723Z,11.59
2018-04-26T09:19:41.074Z,11.80
2018-04-26T09:22:08.623Z,11.84
2018-04-26T09:24:36.219Z,11.87
2018-04-26T09:27:03.763Z,11.89
2018-04-26T09:29:34.602Z,11.90
2018-04-26T09:34:35.032Z,11.87
2018-04-26T09:37:02.639Z,11.87
2018-04-26T09:39:30.289Z,11.89
2018-04-26T09:41:57.813Z,11.96
2018-04-26T09:44:25.501Z,12.01
2018-04-26T09:46:55.549Z,12.04
2018-04-26T09:49:23.836Z,12.08
2018-04-26T09:51:54.755Z,12.10
2018-04-26T09:54:22.379Z,12.13
2018-04-26T09:56:50.011Z,12.18
2018-04-26T09:59:18.227Z,12.25
2018-04-26T10:01:45.872Z,12.28
2018-04-26T10:04:15.610Z,12.29
2018-04-26T10:06:50.531Z,12.35
2018-04-26T10:09:19.160Z,12.42
2018-04-26T10:11:46.779Z,12.42
2018-04-26T10:14:14.352Z,12.46
2018-04-26T10:16:41.948Z,12.43
2018-04-26T10:19:09.541Z,12.39
2018-04-26T10:21:39.862Z,12.42
2018-04-26T10:26:49.853Z,12.50
2018-04-26T10:29:17.971Z,12.52
2018-04-26T10:31:45.524Z,12.60
2018-04-26T10:34:13.147Z,12.65
2018-04-26T10:36:41.715Z,12.70
2018-04-26T10:39:10.087Z,12.73
2018-04-26T10:41:43.447Z,12.70
2018-04-26T10:44:11.785Z,12.74
2018-04-26T10:46:39.367Z,12.71
2018-04-26T10:49:07.850Z,12.65
2018-04-26T10:51:35.441Z,12.63
2018-04-26T10:54:03.072Z,12.58
2018-04-26T10:56:34.766Z,12.65
2018-04-26T10:59:06.543Z,12.69
2018-04-26T11:04:19.537Z,12.64
2018-04-26T11:06:47.208Z,12.61
2018-04-26T11:09:14.836Z,12.54
2018-04-26T11:11:43.623Z,12.50
2018-04-26T11:14:11.227Z,12.52
2018-04-26T11:16:42.095Z,12.59
2018-04-26T11:19:10.757Z,12.60
2018-04-26T11:21:39.092Z,12.64
2018-04-26T11:24:06.626Z,12.73
2018-04-26T11:26:35.073Z,12.83
2018-04-26T11:29:07.258Z,12.95
2018-04-26T11:31:37.994Z,13.04
2018-04-26T11:34:07.359Z,13.08
2018-04-26T11:36:35.463Z,13.09
2018-04-26T11:39:03.124Z,13.23
2018-04-26T11:41:30.752Z,13.42
2018-04-26T11:43:58.344Z,13.32
2018-04-26T11:46:27.628Z,13.35
2018-04-26T11:48:58.541Z,13.32
2018-04-26T11:54:13.744Z,13.46
2018-04-26T11:56:44.875Z,13.52
2018-04-26T11:59:12.462Z,13.56
2018-04-26T12:01:40.035Z,13.58
2018-04-26T12:06:45.938Z,13.64
2018-04-26T12:09:14.852Z,13.65
2018-04-26T12:11:42.528Z,13.64
2018-04-26T12:14:10.086Z,13.63
2018-04-26T12:16:37.646Z,13.64
2018-04-26T12:19:05.210Z,13.64
2018-04-26T12:24:11.571Z,13.74
2018-04-26T12:26:43.495Z,13.80
2018-04-26T12:29:11.078Z,13.88
2018-04-26T12:31:38.705Z,13.92
2018-04-26T12:34:06.255Z,14.01
2018-04-26T12:36:33.881Z,14.07
2018-04-26T12:39:03.936Z,14.09
2018-04-26T12:41:33.885Z,14.10
2018-04-26T12:44:05.744Z,14.10
2018-04-26T12:46:33.335Z,14.13
2018-04-26T12:49:00.918Z,14.22
2018-04-26T12:51:28.591Z,14.17
2018-04-26T12:53:56.152Z,14.20
2018-04-26T12:56:30.199Z,14.26
2018-04-26T12:59:02.767Z,14.35
2018-04-26T13:01:34.637Z,14.29
2018-04-26T13:04:02.172Z,14.30
2018-04-26T13:06:29.717Z,14.37
2018-04-26T13:08:57.237Z,14.35
2018-04-26T13:11:24.852Z,14.40
2018-04-26T13:13:53.592Z,14.35
2018-04-26T13:16:23.669Z,14.24
2018-04-26T13:18:51.368Z,14.27
2018-04-26T13:21:18.922Z,14.36
2018-04-26T13:23:46.507Z,14.40
2018-04-26T13:26:14.113Z,14.39
2018-04-26T13:28:41.876Z,14.29
2018-04-26T13:31:13.847Z,14.38
2018-04-26T13:33:42.014Z,14.46
2018-04-26T13:36:11.112Z,14.56
2018-04-26T13:38:38.740Z,14.55
2018-04-26T13:41:06.408Z,14.52
2018-04-26T13:43:33.950Z,14.57
2018-04-26T13:46:01.548Z,14.72
2018-04-26T13:48:30.434Z,14.88
2018-04-26T13:50:59.431Z,14.98
2018-04-26T13:53:27.318Z,15.07
2018-04-26T13:55:54.849Z,15.10
2018-04-26T13:58:22.514Z,15.13
2018-04-26T14:00:50.117Z,15.14
2018-04-26T14:03:17.667Z,15.19
2018-04-26T14:05:46.464Z,15.28
2018-04-26T14:08:15.739Z,15.28
2018-04-26T14:10:43.447Z,15.24
2018-04-26T14:13:11.067Z,15.38
2018-04-26T14:15:38.601Z,15.45
2018-04-26T14:18:06.139Z,15.49
2018-04-26T14:20:33.810Z,15.43
2018-04-26T14:23:03.867Z,15.32
2018-04-26T14:25:31.652Z,15.35
2018-04-26T14:27:59.311Z,15.28
2018-04-26T14:30:26.815Z,15.32
2018-04-26T14:32:54.383Z,15.33
2018-04-26T14:35:21.955Z,15.33
2018-04-26T14:37:49.611Z,15.27
2018-04-26T14:40:19.868Z,15.36
2018-04-26T14:42:50.393Z,15.41
2018-04-26T14:45:26.405Z,15.42
2018-04-26T14:47:54.095Z,15.43
2018-04-26T14:50:21.651Z,15.51
2018-04-26T14:52:49.226Z,15.60
2018-04-26T14:55:16.917Z,15.64
2018-04-26T14:57:50.008Z,15.52
2018-04-26T15:00:19.722Z,15.49
2018-04-26T15:02:50.055Z,15.46
2018-04-26T15:05:17.620Z,15.53
2018-04-26T15:07:45.240Z,15.46
2018-04-26T15:10:13.823Z,15.51
2018-04-26T15:15:18.101Z,15.63
2018-04-26T15:17:46.492Z,15.65
2018-04-26T15:20:17.841Z,15.70
2018-04-26T15:22:45.363Z,15.78
2018-04-26T15:25:12.919Z,15.93
2018-04-26T15:27:40.439Z,15.96
2018-04-26T15:30:08.041Z,15.87
2018-04-26T15:32:35.900Z,15.82
2018-04-26T15:35:03.468Z,15.74
2018-04-26T15:37:32.378Z,15.92
2018-04-26T15:40:00.627Z,15.88
2018-04-26T15:42:28.182Z,15.83
2018-04-26T15:44:55.750Z,15.83
2018-04-26T15:47:23.380Z,15.83
2018-04-26T15:49:51.921Z,15.91
2018-04-26T15:52:31.181Z,15.92
2018-04-26T15:58:32.222Z,15.94
2018-04-26T16:01:12.039Z,15.97
2018-04-26T16:03:51.469Z,16.07
2018-04-26T16:06:42.540Z,16.14
2018-04-26T16:09:22.840Z,16.27
2018-04-26T16:12:06.182Z,16.23
2018-04-26T16:14:45.491Z,16.08
2018-04-26T16:17:30.574Z,15.83
2018-04-26T16:20:15.614Z,15.74
2018-04-26T16:23:06.012Z,15.53
2018-04-26T16:25:49.874Z,15.46
2018-04-26T16:28:34.920Z,15.26
2018-04-26T16:31:20.147Z,15.00
2018-04-26T16:34:05.147Z,14.98
2018-04-26T16:36:44.589Z,14.97
2018-04-26T16:39:27.204Z,14.86
2018-04-26T16:41:55.793Z,14.79
2018-04-26T16:44:23.527Z,14.71
2018-04-26T16:46:52.068Z,14.60
2018-04-26T16:49:20.513Z,14.48
2018-04-26T16:51:48.038Z,14.33
2018-04-26T16:54:15.631Z,14.08
2018-04-26T16:56:43.649Z,14.07
2018-04-26T16:59:11.424Z,13.90
2018-04-26T17:01:39.026Z,13.91
2018-04-26T17:04:06.691Z,13.82
2018-04-26T17:06:34.331Z,13.72
2018-04-26T17:09:01.826Z,13.64
2018-04-26T17:11:29.387Z,13.55
2018-04-26T17:14:01.112Z,13.51
2018-04-26T17:16:30.854Z,13.42
2018-04-26T17:18:59.741Z,13.42
2018-04-26T17:21:27.307Z,13.41
2018-04-26T17:23:54.870Z,13.38
2018-04-26T17:26:22.416Z,13.34
2018-04-26T17:28:49.998Z,13.24
2018-04-26T17:31:17.953Z,13.18
2018-04-26T17:33:45.683Z,13.07
2018-04-26T17:36:13.768Z,13.06
2018-04-26T17:38:41.308Z,13.03
2018-04-26T17:41:08.889Z,13.02
2018-04-26T17:43:36.425Z,12.99
2018-04-26T17:46:03.991Z,12.96
2018-04-26T17:48:31.631Z,12.90
2018-04-26T17:50:59.179Z,12.83
2018-04-26T17:53:26.791Z,12.71
2018-04-26T17:55:54.356Z,12.63
2018-04-26T17:58:21.969Z,12.55
2018-04-26T18:00:49.470Z,12.55
2018-04-26T18:03:17.033Z,12.57
2018-04-26T18:05:44.702Z,12.57
2018-04-26T18:08:12.528Z,12.52
2018-04-26T18:10:41.739Z,12.47
2018-04-26T18:13:10.529Z,12.39
2018-04-26T18:15:38.112Z,12.38
2018-04-26T18:18:05.627Z,12.38
2018-04-26T18:20:33.196Z,12.35
2018-04-26T18:23:01.655Z,12.34
2018-04-26T18:25:31.771Z,12.35
2018-04-26T18:28:03.749Z,12.29
2018-04-26T18:30:33.846Z,12.27
2018-04-26T18:33:01.476Z,12.22
2018-04-26T18:35:29.123Z,12.15
2018-04-26T18:37:56.735Z,12.11
2018-04-26T18:40:25.996Z,12.10
2018-04-26T18:42:54.159Z,12.09
2018-04-26T18:45:22.685Z,12.08
2018-04-26T18:47:51.895Z,12.05
2018-04-26T18:50:19.431Z,12.02
2018-04-26T18:52:46.966Z,11.98
2018-04-26T18:55:14.526Z,11.97
2018-04-26T18:57:43.521Z,11.97
2018-04-26T19:00:13.777Z,11.98
2018-04-26T19:02:41.523Z,11.95
2018-04-26T19:05:09.044Z,11.94
2018-04-26T19:07:36.614Z,11.91
2018-04-26T19:10:04.136Z,11.87
2018-04-26T19:12:31.730Z,11.83
2018-04-26T19:14:59.382Z,11.81
2018-04-26T19:17:27.081Z,11.77
2018-04-26T19:19:55.538Z,11.73
2018-04-26T19:22:23.123Z,11.69
2018-04-26T19:24:50.680Z,11.66
2018-04-26T19:27:18.203Z,11.63
2018-04-26T19:29:45.833Z,11.60
2018-04-26T19:32:13.630Z,11.58
2018-04-26T19:34:41.956Z,11.55
2018-04-26T19:37:09.669Z,11.54
2018-04-26T19:39:37.257Z,11.53
2018-04-26T19:42:04.771Z,11.54
2018-04-26T19:44:32.338Z,11.54
2018-04-26T19:46:59.912Z,11.54
2018-04-26T19:49:27.503Z,11.52
2018-04-26T19:51:55.229Z,11.49
2018-04-26T19:54:23.868Z,11.45
2018-04-26T19:56:51.416Z,11.41
2018-04-26T19:59:18.950Z,11.38
2018-04-26T20:01:46.495Z,11.35
2018-04-26T20:04:14.100Z,11.32
2018-04-26T20:06:41.960Z,11.30
2018-04-26T20:09:10.545Z,11.28
2018-04-26T20:11:38.519Z,11.27
2018-04-26T20:14:06.075Z,11.27
2018-04-26T20:16:34.714Z,11.27
2018-04-26T20:19:02.255Z,11.28
2018-04-26T20:21:29.810Z,11.29
2018-04-26T20:23:57.761Z,11.29
2018-04-26T20:26:26.289Z,11.30
2018-04-26T20:28:54.007Z,11.30
2018-04-26T20:31:21.599Z,11.30
2018-04-26T20:33:49.171Z,11.30
2018-04-26T20:36:16.721Z,11.29
2018-04-26T20:38:44.288Z,11.29
2018-04-26T20:41:11.851Z,11.29
2018-04-26T20:43:39.472Z,11.29
2018-04-26T20:46:07.877Z,11.29
2018-04-26T20:48:40.906Z,11.30
2018-04-26T20:51:08.429Z,11.29
2018-04-26T20:53:35.975Z,11.29
2018-04-26T20:56:03.516Z,11.29
2018-04-26T20:58:31.145Z,11.28
2018-04-26T21:00:59.513Z,11.28
2018-04-26T21:03:27.136Z,11.27
2018-04-26T21:05:54.837Z,11.27
2018-04-26T21:08:22.401Z,11.28
2018-04-26T21:10:49.930Z,11.28
2018-04-26T21:13:17.483Z,11.28
2018-04-26T21:15:45.348Z,11.27
2018-04-26T21:18:12.922Z,11.26
2018-04-26T21:20:40.532Z,11.24
2018-04-26T21:23:08.239Z,11.24
2018-04-26T21:25:35.771Z,11.23
2018-04-26T21:28:03.302Z,11.23
2018-04-26T21:30:30.864Z,11.21
2018-04-26T21:32:59.324Z,11.20
2018-04-26T21:35:27.045Z,11.19
2018-04-26T21:37:55.268Z,11.18
2018-04-26T21:40:22.908Z,11.17
2018-04-26T21:42:50.419Z,11.15
2018-04-26T21:45:17.930Z,11.14
2018-04-26T21:47:45.481Z,11.13
2018-04-26T21:50:18.490Z,11.11
2018-04-26T21:52:51.811Z,11.10
2018-04-26T21:55:26.079Z,11.09
2018-04-26T21:57:59.421Z,11.07
2018-04-26T22:00:32.536Z,11.04
2018-04-26T22:02:59.494Z,11.02
2018-04-26T22:05:27.962Z,11.01
2018-04-26T22:07:55.622Z,11.00
2018-04-26T22:10:24.285Z,10.99
2018-04-26T22:12:51.921Z,10.99
2018-04-26T22:15:19.545Z,10.98
2018-04-26T22:17:47.079Z,10.96
2018-04-26T22:20:14.962Z,10.96
2018-04-26T22:22:42.563Z,10.95
2018-04-26T22:25:10.255Z,10.95
2018-04-26T22:27:38.047Z,10.95
2018-04-26T22:30:05.801Z,10.96
2018-04-26T22:32:33.494Z,10.97
2018-04-26T22:35:01.038Z,10.98
2018-04-26T22:37:28.554Z,10.98
2018-04-26T22:39:56.083Z,10.99
2018-04-26T22:42:23.782Z,10.99
2018-04-26T22:44:51.461Z,10.98
2018-04-26T22:47:19.262Z,10.99
2018-04-26T22:49:46.880Z,10.99
2018-04-26T22:52:14.415Z,11.00
2018-04-26T22:54:41.951Z,10.98
2018-04-26T22:57:09.495Z,10.96
2018-04-26T22:59:37.887Z,10.95
2018-04-26T23:02:06.263Z,10.95
2018-04-26T23:04:33.987Z,10.94
2018-04-26T23:07:01.921Z,10.93
2018-04-26T23:09:29.458Z,10.93
2018-04-26T23:11:57.008Z,10.92
2018-04-26T23:14:24.629Z,10.92
2018-04-26T23:16:52.258Z,10.90
2018-04-26T23:19:19.931Z,10.89
2018-04-26T23:21:47.479Z,10.88
2018-04-26T23:24:17.523Z,10.86
2018-04-26T23:26:45.052Z,10.85
2018-04-26T23:29:12.609Z,10.83
2018-04-26T23:31:40.216Z,10.80
2018-04-26T23:42:54.907Z,10.67
2018-04-26T23:45:22.485Z,10.63
2018-04-26T23:47:50.064Z,10.58
2018-04-26T23:59:26.876Z,10.35
